sensor_id;sensor_type;location;lat;lon;timestamp;P1;durP1;ratioP1;P2;durP2;ratioP2
41709;SDS011;59402;48.396;-4.472;2023-06-22T00:00:57;9.05;;;7.65;;
41709;SDS011;59402;48.396;-4.472;2023-06-22T00:03:24;7.65;;;6.85;;
41709;SDS011;59402;48.396;-4.472;2023-06-22T00:05:50;11.00;;;7.13;;
41709;SDS011;59402;48.396;-4.472;2023-06-22T00:08:16;12.57;;;7.80;;
41709;SDS011;59402;48.396;-4.472;2023-06-22T00:10:43;11.02;;;7.25;;
41709;SDS011;59402;48.396;-4.472;2023-06-22T00:13:09;11.93;;;7.53;;
41709;SDS011;59402;48.396;-4.472;2023-06-22T00:15:35;9.52;;;7.55;;
41709;SDS011;59402;48.396;-4.472;2023-06-22T00:18:02;10.13;;;8.15;;
41709;SDS011;59402;48.396;-4.472;2023-06-22T00:20:28;10.80;;;7.93;;
41709;SDS011;59402;48.396;-4.472;2023-06-22T00:22:55;9.53;;;8.23;;
41709;SDS011;59402;48.396;-4.472;2023-06-22T00:25:21;12.75;;;8.68;;
41709;SDS011;59402;48.396;-4.472;2023-06-22T00:27:47;12.30;;;8.20;;
41709;SDS011;59402;48.396;-4.472;2023-06-22T00:30:14;11.25;;;8.85;;
41709;SDS011;59402;48.396;-4.472;2023-06-22T00:32:41;10.63;;;9.07;;
41709;SDS011;59402;48.396;-4.472;2023-06-22T00:35:07;15.27;;;9.35;;
41709;SDS011;59402;48.396;-4.472;2023-06-22T00:37:34;13.43;;;10.27;;
41709;SDS011;59402;48.396;-4.472;2023-06-22T00:40:01;13.47;;;9.03;;
41709;SDS011;59402;48.396;-4.472;2023-06-22T00:42:27;14.65;;;10.55;;
41709;SDS011;59402;48.396;-4.472;2023-06-22T00:44:53;13.90;;;10.70;;
41709;SDS011;59402;48.396;-4.472;2023-06-22T00:47:19;16.27;;;10.52;;
41709;SDS011;59402;48.396;-4.472;2023-06-22T00:49:45;15.75;;;11.50;;
41709;SDS011;59402;48.396;-4.472;2023-06-22T00:52:13;15.50;;;10.48;;
41709;SDS011;59402;48.396;-4.472;2023-06-22T00:54:42;15.32;;;11.32;;
41709;SDS011;59402;48.396;-4.472;2023-06-22T00:57:14;13.43;;;11.30;;
41709;SDS011;59402;48.396;-4.472;2023-06-22T00:59:47;12.15;;;10.85;;
41709;SDS011;59402;48.396;-4.472;2023-06-22T01:02:14;15.05;;;12.70;;
41709;SDS011;59402;48.396;-4.472;2023-06-22T01:04:40;15.82;;;12.15;;
41709;SDS011;59402;48.396;-4.472;2023-06-22T01:12:23;13.05;;;11.38;;
41709;SDS011;59402;48.396;-4.472;2023-06-22T01:14:56;16.92;;;13.60;;
41709;SDS011;59402;48.396;-4.472;2023-06-22T01:17:25;15.57;;;13.48;;
41709;SDS011;59402;48.396;-4.472;2023-06-22T01:19:54;16.65;;;13.40;;
41709;SDS011;59402;48.396;-4.472;2023-06-22T01:22:24;22.67;;;14.70;;
41709;SDS011;59402;48.396;-4.472;2023-06-22T01:29:58;16.70;;;13.95;;
41709;SDS011;59402;48.396;-4.472;2023-06-22T01:32:32;17.15;;;13.90;;
41709;SDS011;59402;48.396;-4.472;2023-06-22T01:35:00;18.90;;;15.20;;
41709;SDS011;59402;48.396;-4.472;2023-06-22T01:37:29;17.75;;;15.23;;
41709;SDS011;59402;48.396;-4.472;2023-06-22T01:39:57;18.55;;;16.17;;
41709;SDS011;59402;48.396;-4.472;2023-06-22T01:42:24;17.42;;;14.65;;
41709;SDS011;59402;48.396;-4.472;2023-06-22T01:44:50;19.00;;;15.07;;
41709;SDS011;59402;48.396;-4.472;2023-06-22T01:47:20;17.92;;;14.48;;
41709;SDS011;59402;48.396;-4.472;2023-06-22T01:49:47;18.35;;;14.73;;
41709;SDS011;59402;48.396;-4.472;2023-06-22T01:52:13;18.48;;;15.15;;
41709;SDS011;59402;48.396;-4.472;2023-06-22T01:54:39;18.67;;;15.60;;
41709;SDS011;59402;48.396;-4.472;2023-06-22T01:57:05;21.92;;;15.93;;
41709;SDS011;59402;48.396;-4.472;2023-06-22T02:02:02;19.52;;;15.63;;
41709;SDS011;59402;48.396;-4.472;2023-06-22T02:04:37;19.20;;;15.68;;
41709;SDS011;59402;48.396;-4.472;2023-06-22T02:07:26;22.30;;;18.13;;
41709;SDS011;59402;48.396;-4.472;2023-06-22T02:09:55;22.17;;;18.10;;
41709;SDS011;59402;48.396;-4.472;2023-06-22T02:12:23;24.08;;;19.13;;
41709;SDS011;59402;48.396;-4.472;2023-06-22T02:14:52;22.10;;;17.52;;
41709;SDS011;59402;48.396;-4.472;2023-06-22T02:17:18;23.08;;;17.92;;
41709;SDS011;59402;48.396;-4.472;2023-06-22T02:19:44;23.83;;;18.13;;
41709;SDS011;59402;48.396;-4.472;2023-06-22T02:22:10;24.63;;;18.30;;
41709;SDS011;59402;48.396;-4.472;2023-06-22T02:24:36;22.42;;;18.40;;
41709;SDS011;59402;48.396;-4.472;2023-06-22T02:27:02;24.45;;;18.48;;
41709;SDS011;59402;48.396;-4.472;2023-06-22T02:29:31;23.05;;;18.55;;
41709;SDS011;59402;48.396;-4.472;2023-06-22T02:31:57;27.58;;;19.63;;
41709;SDS011;59402;48.396;-4.472;2023-06-22T02:34:23;24.63;;;19.27;;
41709;SDS011;59402;48.396;-4.472;2023-06-22T02:36:50;25.98;;;20.00;;
41709;SDS011;59402;48.396;-4.472;2023-06-22T02:39:23;25.88;;;20.38;;
41709;SDS011;59402;48.396;-4.472;2023-06-22T02:41:53;24.58;;;20.00;;
41709;SDS011;59402;48.396;-4.472;2023-06-22T02:44:21;28.83;;;21.20;;
41709;SDS011;59402;48.396;-4.472;2023-06-22T02:46:47;26.10;;;20.75;;
41709;SDS011;59402;48.396;-4.472;2023-06-22T02:49:14;26.20;;;22.13;;
41709;SDS011;59402;48.396;-4.472;2023-06-22T02:51:42;25.92;;;21.20;;
41709;SDS011;59402;48.396;-4.472;2023-06-22T02:54:11;29.70;;;23.48;;
41709;SDS011;59402;48.396;-4.472;2023-06-22T02:56:37;31.40;;;26.02;;
41709;SDS011;59402;48.396;-4.472;2023-06-22T02:59:02;27.27;;;23.38;;
41709;SDS011;59402;48.396;-4.472;2023-06-22T03:01:34;28.02;;;23.60;;
41709;SDS011;59402;48.396;-4.472;2023-06-22T03:04:03;30.48;;;24.23;;
41709;SDS011;59402;48.396;-4.472;2023-06-22T03:06:30;29.27;;;23.58;;
41709;SDS011;59402;48.396;-4.472;2023-06-22T03:09:00;29.67;;;25.13;;
41709;SDS011;59402;48.396;-4.472;2023-06-22T03:11:27;31.20;;;24.92;;
41709;SDS011;59402;48.396;-4.472;2023-06-22T03:13:53;27.92;;;23.67;;
41709;SDS011;59402;48.396;-4.472;2023-06-22T03:16:20;26.20;;;23.38;;
41709;SDS011;59402;48.396;-4.472;2023-06-22T03:18:46;25.50;;;22.73;;
41709;SDS011;59402;48.396;-4.472;2023-06-22T03:21:12;25.83;;;23.05;;
41709;SDS011;59402;48.396;-4.472;2023-06-22T03:26:06;31.88;;;23.42;;
41709;SDS011;59402;48.396;-4.472;2023-06-22T03:28:32;28.27;;;23.88;;
41709;SDS011;59402;48.396;-4.472;2023-06-22T03:30:58;29.58;;;24.27;;
41709;SDS011;59402;48.396;-4.472;2023-06-22T03:33:23;29.40;;;25.30;;
41709;SDS011;59402;48.396;-4.472;2023-06-22T03:35:49;28.70;;;25.00;;
41709;SDS011;59402;48.396;-4.472;2023-06-22T03:38:15;36.05;;;27.33;;
41709;SDS011;59402;48.396;-4.472;2023-06-22T03:40:42;40.40;;;25.80;;
41709;SDS011;59402;48.396;-4.472;2023-06-22T03:43:08;37.58;;;26.08;;
41709;SDS011;59402;48.396;-4.472;2023-06-22T03:45:34;34.35;;;24.25;;
41709;SDS011;59402;48.396;-4.472;2023-06-22T03:48:00;37.67;;;25.65;;
41709;SDS011;59402;48.396;-4.472;2023-06-22T03:50:26;37.75;;;24.45;;
41709;SDS011;59402;48.396;-4.472;2023-06-22T03:52:52;37.50;;;23.73;;
41709;SDS011;59402;48.396;-4.472;2023-06-22T03:55:19;40.13;;;25.60;;
41709;SDS011;59402;48.396;-4.472;2023-06-22T03:57:45;50.30;;;24.98;;
41709;SDS011;59402;48.396;-4.472;2023-06-22T04:00:11;51.47;;;25.58;;
41709;SDS011;59402;48.396;-4.472;2023-06-22T04:02:37;44.22;;;22.88;;
41709;SDS011;59402;48.396;-4.472;2023-06-22T04:05:03;50.17;;;24.10;;
41709;SDS011;59402;48.396;-4.472;2023-06-22T04:07:29;53.72;;;25.70;;
41709;SDS011;59402;48.396;-4.472;2023-06-22T04:09:55;55.10;;;24.42;;
41709;SDS011;59402;48.396;-4.472;2023-06-22T04:12:20;24.52;;;8.07;;
41709;SDS011;59402;48.396;-4.472;2023-06-22T04:14:46;16.00;;;8.98;;
41709;SDS011;59402;48.396;-4.472;2023-06-22T04:17:12;13.65;;;9.85;;
41709;SDS011;59402;48.396;-4.472;2023-06-22T04:19:39;16.50;;;10.50;;
41709;SDS011;59402;48.396;-4.472;2023-06-22T04:22:05;21.30;;;9.35;;
41709;SDS011;59402;48.396;-4.472;2023-06-22T04:24:35;19.40;;;9.73;;
41709;SDS011;59402;48.396;-4.472;2023-06-22T04:27:00;17.55;;;9.98;;
41709;SDS011;59402;48.396;-4.472;2023-06-22T04:29:27;17.38;;;9.70;;
41709;SDS011;59402;48.396;-4.472;2023-06-22T04:31:57;18.90;;;11.65;;
41709;SDS011;59402;48.396;-4.472;2023-06-22T04:34:24;17.98;;;10.35;;
41709;SDS011;59402;48.396;-4.472;2023-06-22T04:36:53;22.77;;;9.73;;
41709;SDS011;59402;48.396;-4.472;2023-06-22T04:39:19;20.48;;;10.45;;
41709;SDS011;59402;48.396;-4.472;2023-06-22T04:41:44;25.30;;;11.38;;
41709;SDS011;59402;48.396;-4.472;2023-06-22T04:44:11;18.60;;;11.15;;
41709;SDS011;59402;48.396;-4.472;2023-06-22T04:46:37;19.25;;;10.75;;
41709;SDS011;59402;48.396;-4.472;2023-06-22T04:49:07;21.27;;;11.55;;
41709;SDS011;59402;48.396;-4.472;2023-06-22T04:51:39;29.02;;;12.05;;
41709;SDS011;59402;48.396;-4.472;2023-06-22T04:54:05;33.92;;;11.55;;
41709;SDS011;59402;48.396;-4.472;2023-06-22T04:56:32;33.03;;;10.70;;
41709;SDS011;59402;48.396;-4.472;2023-06-22T04:58:58;22.25;;;11.98;;
41709;SDS011;59402;48.396;-4.472;2023-06-22T05:01:23;22.27;;;12.65;;
41709;SDS011;59402;48.396;-4.472;2023-06-22T05:03:50;27.10;;;12.53;;
41709;SDS011;59402;48.396;-4.472;2023-06-22T05:06:20;25.08;;;10.95;;
41709;SDS011;59402;48.396;-4.472;2023-06-22T05:08:49;21.20;;;11.00;;
41709;SDS011;59402;48.396;-4.472;2023-06-22T05:11:27;22.40;;;11.27;;
41709;SDS011;59402;48.396;-4.472;2023-06-22T05:13:53;17.98;;;10.48;;
41709;SDS011;59402;48.396;-4.472;2023-06-22T05:16:20;21.15;;;10.57;;
41709;SDS011;59402;48.396;-4.472;2023-06-22T05:18:50;20.52;;;11.07;;
41709;SDS011;59402;48.396;-4.472;2023-06-22T05:21:23;18.90;;;10.68;;
41709;SDS011;59402;48.396;-4.472;2023-06-22T05:23:50;17.48;;;10.48;;
41709;SDS011;59402;48.396;-4.472;2023-06-22T05:26:16;16.83;;;9.10;;
41709;SDS011;59402;48.396;-4.472;2023-06-22T05:28:43;16.95;;;8.85;;
41709;SDS011;59402;48.396;-4.472;2023-06-22T05:31:11;14.23;;;8.80;;
41709;SDS011;59402;48.396;-4.472;2023-06-22T05:33:38;19.40;;;9.07;;
41709;SDS011;59402;48.396;-4.472;2023-06-22T05:36:05;12.98;;;9.02;;
41709;SDS011;59402;48.396;-4.472;2023-06-22T05:38:31;13.18;;;8.70;;
41709;SDS011;59402;48.396;-4.472;2023-06-22T05:40:56;14.98;;;8.25;;
41709;SDS011;59402;48.396;-4.472;2023-06-22T05:43:22;12.50;;;7.75;;
41709;SDS011;59402;48.396;-4.472;2023-06-22T05:45:48;14.80;;;10.07;;
41709;SDS011;59402;48.396;-4.472;2023-06-22T05:48:13;14.55;;;7.18;;
41709;SDS011;59402;48.396;-4.472;2023-06-22T05:50:39;13.88;;;11.23;;
41709;SDS011;59402;48.396;-4.472;2023-06-22T05:53:05;13.43;;;8.50;;
41709;SDS011;59402;48.396;-4.472;2023-06-22T05:55:32;12.10;;;8.35;;
41709;SDS011;59402;48.396;-4.472;2023-06-22T05:57:57;12.88;;;10.05;;
41709;SDS011;59402;48.396;-4.472;2023-06-22T06:00:23;16.77;;;9.88;;
41709;SDS011;59402;48.396;-4.472;2023-06-22T06:02:49;17.83;;;9.27;;
41709;SDS011;59402;48.396;-4.472;2023-06-22T06:05:15;13.23;;;11.68;;
41709;SDS011;59402;48.396;-4.472;2023-06-22T06:07:41;15.85;;;11.02;;
41709;SDS011;59402;48.396;-4.472;2023-06-22T06:10:08;14.15;;;10.95;;
41709;SDS011;59402;48.396;-4.472;2023-06-22T06:12:34;12.73;;;9.60;;
41709;SDS011;59402;48.396;-4.472;2023-06-22T06:15:01;13.88;;;10.25;;
41709;SDS011;59402;48.396;-4.472;2023-06-22T06:17:27;12.02;;;9.05;;
41709;SDS011;59402;48.396;-4.472;2023-06-22T06:19:52;10.65;;;8.07;;
41709;SDS011;59402;48.396;-4.472;2023-06-22T06:22:18;12.73;;;9.18;;
41709;SDS011;59402;48.396;-4.472;2023-06-22T06:27:12;10.43;;;6.93;;
41709;SDS011;59402;48.396;-4.472;2023-06-22T06:29:38;9.63;;;6.30;;
41709;SDS011;59402;48.396;-4.472;2023-06-22T06:32:04;12.07;;;7.70;;
41709;SDS011;59402;48.396;-4.472;2023-06-22T06:34:30;9.57;;;6.53;;
41709;SDS011;59402;48.396;-4.472;2023-06-22T06:36:55;10.02;;;6.88;;
41709;SDS011;59402;48.396;-4.472;2023-06-22T06:39:21;8.38;;;6.10;;
41709;SDS011;59402;48.396;-4.472;2023-06-22T06:41:47;9.48;;;6.70;;
41709;SDS011;59402;48.396;-4.472;2023-06-22T06:44:14;9.27;;;6.80;;
41709;SDS011;59402;48.396;-4.472;2023-06-22T06:46:40;14.90;;;7.45;;
41709;SDS011;59402;48.396;-4.472;2023-06-22T06:49:07;9.52;;;7.30;;
41709;SDS011;59402;48.396;-4.472;2023-06-22T06:51:33;11.02;;;8.35;;
41709;SDS011;59402;48.396;-4.472;2023-06-22T06:53:58;8.52;;;7.07;;
41709;SDS011;59402;48.396;-4.472;2023-06-22T06:56:24;9.40;;;6.82;;
41709;SDS011;59402;48.396;-4.472;2023-06-22T06:58:50;11.07;;;8.50;;
41709;SDS011;59402;48.396;-4.472;2023-06-22T07:01:16;9.25;;;6.32;;
41709;SDS011;59402;48.396;-4.472;2023-06-22T07:03:42;9.23;;;7.18;;
41709;SDS011;59402;48.396;-4.472;2023-06-22T07:06:08;10.40;;;7.18;;
41709;SDS011;59402;48.396;-4.472;2023-06-22T07:08:34;9.00;;;6.90;;
41709;SDS011;59402;48.396;-4.472;2023-06-22T07:11:01;9.48;;;7.07;;
41709;SDS011;59402;48.396;-4.472;2023-06-22T07:13:27;9.13;;;5.80;;
41709;SDS011;59402;48.396;-4.472;2023-06-22T07:15:53;8.32;;;5.50;;
41709;SDS011;59402;48.396;-4.472;2023-06-22T07:18:19;9.07;;;5.72;;
41709;SDS011;59402;48.396;-4.472;2023-06-22T07:20:44;8.65;;;5.90;;
41709;SDS011;59402;48.396;-4.472;2023-06-22T07:23:10;8.77;;;5.80;;
41709;SDS011;59402;48.396;-4.472;2023-06-22T07:25:36;9.23;;;5.90;;
41709;SDS011;59402;48.396;-4.472;2023-06-22T07:28:05;8.35;;;6.00;;
41709;SDS011;59402;48.396;-4.472;2023-06-22T07:30:32;7.43;;;5.07;;
41709;SDS011;59402;48.396;-4.472;2023-06-22T07:32:58;10.32;;;6.65;;
41709;SDS011;59402;48.396;-4.472;2023-06-22T07:35:28;9.38;;;6.40;;
41709;SDS011;59402;48.396;-4.472;2023-06-22T07:37:54;10.20;;;6.95;;
41709;SDS011;59402;48.396;-4.472;2023-06-22T07:40:20;10.23;;;7.10;;
41709;SDS011;59402;48.396;-4.472;2023-06-22T07:42:46;9.27;;;6.50;;
41709;SDS011;59402;48.396;-4.472;2023-06-22T07:45:13;6.78;;;5.05;;
41709;SDS011;59402;48.396;-4.472;2023-06-22T07:47:39;8.65;;;4.38;;
41709;SDS011;59402;48.396;-4.472;2023-06-22T07:50:05;6.45;;;4.05;;
41709;SDS011;59402;48.396;-4.472;2023-06-22T07:52:31;5.88;;;4.15;;
41709;SDS011;59402;48.396;-4.472;2023-06-22T07:54:57;21.05;;;5.10;;
41709;SDS011;59402;48.396;-4.472;2023-06-22T07:57:23;16.52;;;5.32;;
41709;SDS011;59402;48.396;-4.472;2023-06-22T07:59:57;8.95;;;4.95;;
41709;SDS011;59402;48.396;-4.472;2023-06-22T08:02:24;7.82;;;4.55;;
41709;SDS011;59402;48.396;-4.472;2023-06-22T08:04:50;9.30;;;5.55;;
41709;SDS011;59402;48.396;-4.472;2023-06-22T08:07:15;9.82;;;5.68;;
41709;SDS011;59402;48.396;-4.472;2023-06-22T08:09:45;13.00;;;6.95;;
41709;SDS011;59402;48.396;-4.472;2023-06-22T08:12:13;12.18;;;6.93;;
41709;SDS011;59402;48.396;-4.472;2023-06-22T08:14:39;8.60;;;7.03;;
41709;SDS011;59402;48.396;-4.472;2023-06-22T08:17:04;9.13;;;6.60;;
41709;SDS011;59402;48.396;-4.472;2023-06-22T08:19:30;6.75;;;5.13;;
41709;SDS011;59402;48.396;-4.472;2023-06-22T08:21:56;6.20;;;4.75;;
41709;SDS011;59402;48.396;-4.472;2023-06-22T08:24:22;10.73;;;6.00;;
41709;SDS011;59402;48.396;-4.472;2023-06-22T08:26:50;8.27;;;5.55;;
41709;SDS011;59402;48.396;-4.472;2023-06-22T08:29:16;6.00;;;4.28;;
41709;SDS011;59402;48.396;-4.472;2023-06-22T08:31:42;6.63;;;4.03;;
41709;SDS011;59402;48.396;-4.472;2023-06-22T08:34:08;6.25;;;4.03;;
41709;SDS011;59402;48.396;-4.472;2023-06-22T08:36:34;7.88;;;4.07;;
41709;SDS011;59402;48.396;-4.472;2023-06-22T08:39:03;5.03;;;3.67;;
41709;SDS011;59402;48.396;-4.472;2023-06-22T08:41:29;5.85;;;4.03;;
41709;SDS011;59402;48.396;-4.472;2023-06-22T08:43:54;7.97;;;3.85;;
41709;SDS011;59402;48.396;-4.472;2023-06-22T08:46:20;5.38;;;3.33;;
41709;SDS011;59402;48.396;-4.472;2023-06-22T08:48:49;5.38;;;3.35;;
41709;SDS011;59402;48.396;-4.472;2023-06-22T08:51:15;4.20;;;2.65;;
41709;SDS011;59402;48.396;-4.472;2023-06-22T08:53:42;5.72;;;2.53;;
41709;SDS011;59402;48.396;-4.472;2023-06-22T08:56:08;4.32;;;2.40;;
41709;SDS011;59402;48.396;-4.472;2023-06-22T08:58:33;4.63;;;2.67;;
41709;SDS011;59402;48.396;-4.472;2023-06-22T09:00:59;3.70;;;2.13;;
41709;SDS011;59402;48.396;-4.472;2023-06-22T09:03:26;4.53;;;2.30;;
41709;SDS011;59402;48.396;-4.472;2023-06-22T09:05:52;5.00;;;2.05;;
41709;SDS011;59402;48.396;-4.472;2023-06-22T09:08:18;5.65;;;2.30;;
41709;SDS011;59402;48.396;-4.472;2023-06-22T09:10:43;4.65;;;2.35;;
41709;SDS011;59402;48.396;-4.472;2023-06-22T09:13:09;5.00;;;2.50;;
41709;SDS011;59402;48.396;-4.472;2023-06-22T09:15:35;4.00;;;2.30;;
41709;SDS011;59402;48.396;-4.472;2023-06-22T09:18:00;6.10;;;2.28;;
41709;SDS011;59402;48.396;-4.472;2023-06-22T09:20:26;4.57;;;2.25;;
41709;SDS011;59402;48.396;-4.472;2023-06-22T09:22:52;6.72;;;2.30;;
41709;SDS011;59402;48.396;-4.472;2023-06-22T09:25:18;4.93;;;2.55;;
41709;SDS011;59402;48.396;-4.472;2023-06-22T09:27:46;6.43;;;2.70;;
41709;SDS011;59402;48.396;-4.472;2023-06-22T09:30:12;4.38;;;2.33;;
41709;SDS011;59402;48.396;-4.472;2023-06-22T09:32:38;4.22;;;2.28;;
41709;SDS011;59402;48.396;-4.472;2023-06-22T09:35:04;3.95;;;1.98;;
41709;SDS011;59402;48.396;-4.472;2023-06-22T09:37:31;6.97;;;2.88;;
41709;SDS011;59402;48.396;-4.472;2023-06-22T09:39:57;6.35;;;2.58;;
41709;SDS011;59402;48.396;-4.472;2023-06-22T09:42:23;5.22;;;2.30;;
41709;SDS011;59402;48.396;-4.472;2023-06-22T09:44:48;4.32;;;2.45;;
41709;SDS011;59402;48.396;-4.472;2023-06-22T09:47:14;5.68;;;2.35;;
41709;SDS011;59402;48.396;-4.472;2023-06-22T09:49:40;4.05;;;2.58;;
41709;SDS011;59402;48.396;-4.472;2023-06-22T09:52:06;4.13;;;2.60;;
41709;SDS011;59402;48.396;-4.472;2023-06-22T09:54:32;4.00;;;2.58;;
41709;SDS011;59402;48.396;-4.472;2023-06-22T09:56:57;5.07;;;2.17;;
41709;SDS011;59402;48.396;-4.472;2023-06-22T09:59:23;3.78;;;1.95;;
41709;SDS011;59402;48.396;-4.472;2023-06-22T10:01:49;4.63;;;2.15;;
41709;SDS011;59402;48.396;-4.472;2023-06-22T10:04:14;4.55;;;2.00;;
41709;SDS011;59402;48.396;-4.472;2023-06-22T10:06:40;4.80;;;2.40;;
41709;SDS011;59402;48.396;-4.472;2023-06-22T10:09:06;4.25;;;2.10;;
41709;SDS011;59402;48.396;-4.472;2023-06-22T10:11:33;6.03;;;2.33;;
41709;SDS011;59402;48.396;-4.472;2023-06-22T10:14:00;5.07;;;2.20;;
41709;SDS011;59402;48.396;-4.472;2023-06-22T10:16:32;5.45;;;2.42;;
41709;SDS011;59402;48.396;-4.472;2023-06-22T10:19:00;4.20;;;2.15;;
41709;SDS011;59402;48.396;-4.472;2023-06-22T10:21:26;4.72;;;1.88;;
41709;SDS011;59402;48.396;-4.472;2023-06-22T10:23:53;8.18;;;2.35;;
41709;SDS011;59402;48.396;-4.472;2023-06-22T10:26:19;4.07;;;2.15;;
41709;SDS011;59402;48.396;-4.472;2023-06-22T10:28:45;4.72;;;2.28;;
41709;SDS011;59402;48.396;-4.472;2023-06-22T10:31:11;3.97;;;2.00;;
41709;SDS011;59402;48.396;-4.472;2023-06-22T10:33:36;4.57;;;1.83;;
41709;SDS011;59402;48.396;-4.472;2023-06-22T10:36:02;6.75;;;2.40;;
41709;SDS011;59402;48.396;-4.472;2023-06-22T10:38:28;6.78;;;2.25;;
41709;SDS011;59402;48.396;-4.472;2023-06-22T10:40:54;4.70;;;2.10;;
41709;SDS011;59402;48.396;-4.472;2023-06-22T10:43:20;12.57;;;2.70;;
41709;SDS011;59402;48.396;-4.472;2023-06-22T10:45:45;3.70;;;2.10;;
41709;SDS011;59402;48.396;-4.472;2023-06-22T10:48:11;3.75;;;2.00;;
41709;SDS011;59402;48.396;-4.472;2023-06-22T10:50:37;3.65;;;1.85;;
41709;SDS011;59402;48.396;-4.472;2023-06-22T10:53:02;3.45;;;1.60;;
41709;SDS011;59402;48.396;-4.472;2023-06-22T10:55:28;4.65;;;1.90;;
41709;SDS011;59402;48.396;-4.472;2023-06-22T10:57:54;3.35;;;1.88;;
41709;SDS011;59402;48.396;-4.472;2023-06-22T11:00:20;4.75;;;1.98;;
41709;SDS011;59402;48.396;-4.472;2023-06-22T11:02:46;4.13;;;1.88;;
41709;SDS011;59402;48.396;-4.472;2023-06-22T11:05:12;3.92;;;1.88;;
41709;SDS011;59402;48.396;-4.472;2023-06-22T11:07:41;3.72;;;1.80;;
41709;SDS011;59402;48.396;-4.472;2023-06-22T11:10:07;5.45;;;2.00;;
41709;SDS011;59402;48.396;-4.472;2023-06-22T11:12:33;7.03;;;2.05;;
41709;SDS011;59402;48.396;-4.472;2023-06-22T11:14:59;4.18;;;1.80;;
41709;SDS011;59402;48.396;-4.472;2023-06-22T11:17:24;3.75;;;1.85;;
41709;SDS011;59402;48.396;-4.472;2023-06-22T11:19:50;5.18;;;2.28;;
41709;SDS011;59402;48.396;-4.472;2023-06-22T11:22:16;5.15;;;2.53;;
41709;SDS011;59402;48.396;-4.472;2023-06-22T11:24:42;11.68;;;3.08;;
41709;SDS011;59402;48.396;-4.472;2023-06-22T11:27:07;4.68;;;2.13;;
41709;SDS011;59402;48.396;-4.472;2023-06-22T11:29:33;7.15;;;3.42;;
41709;SDS011;59402;48.396;-4.472;2023-06-22T11:31:59;7.82;;;1.92;;
41709;SDS011;59402;48.396;-4.472;2023-06-22T11:34:24;12.70;;;2.95;;
41709;SDS011;59402;48.396;-4.472;2023-06-22T11:36:51;41.35;;;11.70;;
41709;SDS011;59402;48.396;-4.472;2023-06-22T11:39:16;133.52;;;26.30;;
41709;SDS011;59402;48.396;-4.472;2023-06-22T11:41:42;68.72;;;14.90;;
41709;SDS011;59402;48.396;-4.472;2023-06-22T11:44:08;55.35;;;15.25;;
41709;SDS011;59402;48.396;-4.472;2023-06-22T11:46:34;11.95;;;3.65;;
41709;SDS011;59402;48.396;-4.472;2023-06-22T11:49:00;5.55;;;2.20;;
41709;SDS011;59402;48.396;-4.472;2023-06-22T11:51:26;5.53;;;2.10;;
41709;SDS011;59402;48.396;-4.472;2023-06-22T11:53:53;4.72;;;1.90;;
41709;SDS011;59402;48.396;-4.472;2023-06-22T11:56:19;4.97;;;1.67;;
41709;SDS011;59402;48.396;-4.472;2023-06-22T11:58:44;4.25;;;1.70;;
41709;SDS011;59402;48.396;-4.472;2023-06-22T12:01:10;4.57;;;1.65;;
41709;SDS011;59402;48.396;-4.472;2023-06-22T12:03:40;4.72;;;1.90;;
41709;SDS011;59402;48.396;-4.472;2023-06-22T12:06:06;4.43;;;2.10;;
41709;SDS011;59402;48.396;-4.472;2023-06-22T12:08:32;3.00;;;1.50;;
41709;SDS011;59402;48.396;-4.472;2023-06-22T12:10:57;4.75;;;2.00;;
41709;SDS011;59402;48.396;-4.472;2023-06-22T12:13:23;4.22;;;1.75;;
41709;SDS011;59402;48.396;-4.472;2023-06-22T12:15:49;3.38;;;1.83;;
41709;SDS011;59402;48.396;-4.472;2023-06-22T12:18:16;4.88;;;2.00;;
41709;SDS011;59402;48.396;-4.472;2023-06-22T12:20:42;3.58;;;1.50;;
41709;SDS011;59402;48.396;-4.472;2023-06-22T12:23:08;4.90;;;2.03;;
41709;SDS011;59402;48.396;-4.472;2023-06-22T12:25:33;4.07;;;1.70;;
41709;SDS011;59402;48.396;-4.472;2023-06-22T12:27:59;3.08;;;1.50;;
41709;SDS011;59402;48.396;-4.472;2023-06-22T12:30:25;4.07;;;1.60;;
41709;SDS011;59402;48.396;-4.472;2023-06-22T12:32:51;3.70;;;1.80;;
41709;SDS011;59402;48.396;-4.472;2023-06-22T12:35:16;3.83;;;1.50;;
41709;SDS011;59402;48.396;-4.472;2023-06-22T12:37:42;3.42;;;1.60;;
41709;SDS011;59402;48.396;-4.472;2023-06-22T12:40:08;4.22;;;1.80;;
41709;SDS011;59402;48.396;-4.472;2023-06-22T12:42:34;3.15;;;1.58;;
41709;SDS011;59402;48.396;-4.472;2023-06-22T12:45:00;5.28;;;1.58;;
41709;SDS011;59402;48.396;-4.472;2023-06-22T12:47:26;3.27;;;1.40;;
41709;SDS011;59402;48.396;-4.472;2023-06-22T12:49:52;4.70;;;1.80;;
41709;SDS011;59402;48.396;-4.472;2023-06-22T12:52:17;3.50;;;1.20;;
41709;SDS011;59402;48.396;-4.472;2023-06-22T12:54:43;2.97;;;1.53;;
41709;SDS011;59402;48.396;-4.472;2023-06-22T12:57:09;6.77;;;1.90;;
41709;SDS011;59402;48.396;-4.472;2023-06-22T12:59:34;4.20;;;1.60;;
41709;SDS011;59402;48.396;-4.472;2023-06-22T13:02:00;3.60;;;1.40;;
41709;SDS011;59402;48.396;-4.472;2023-06-22T13:04:26;4.70;;;1.47;;
41709;SDS011;59402;48.396;-4.472;2023-06-22T13:06:51;5.03;;;1.43;;
41709;SDS011;59402;48.396;-4.472;2023-06-22T13:09:18;3.77;;;1.63;;
41709;SDS011;59402;48.396;-4.472;2023-06-22T13:11:44;4.45;;;1.75;;
41709;SDS011;59402;48.396;-4.472;2023-06-22T13:14:10;3.30;;;1.40;;
41709;SDS011;59402;48.396;-4.472;2023-06-22T13:16:36;3.73;;;1.83;;
41709;SDS011;59402;48.396;-4.472;2023-06-22T13:19:01;3.67;;;1.50;;
41709;SDS011;59402;48.396;-4.472;2023-06-22T13:21:27;3.53;;;1.47;;
41709;SDS011;59402;48.396;-4.472;2023-06-22T13:23:53;3.27;;;1.23;;
41709;SDS011;59402;48.396;-4.472;2023-06-22T13:26:20;3.50;;;1.50;;
41709;SDS011;59402;48.396;-4.472;2023-06-22T13:28:46;4.30;;;1.60;;
41709;SDS011;59402;48.396;-4.472;2023-06-22T13:31:11;4.57;;;1.60;;
41709;SDS011;59402;48.396;-4.472;2023-06-22T13:33:37;4.90;;;1.70;;
41709;SDS011;59402;48.396;-4.472;2023-06-22T13:36:04;3.25;;;1.25;;
41709;SDS011;59402;48.396;-4.472;2023-06-22T13:38:31;3.53;;;1.60;;
41709;SDS011;59402;48.396;-4.472;2023-06-22T13:40:57;3.47;;;1.45;;
41709;SDS011;59402;48.396;-4.472;2023-06-22T13:43:24;3.33;;;1.48;;
41709;SDS011;59402;48.396;-4.472;2023-06-22T13:45:51;3.05;;;1.30;;
41709;SDS011;59402;48.396;-4.472;2023-06-22T13:48:17;3.17;;;1.50;;
41709;SDS011;59402;48.396;-4.472;2023-06-22T13:50:43;2.60;;;1.10;;
41709;SDS011;59402;48.396;-4.472;2023-06-22T13:53:09;3.03;;;1.38;;
41709;SDS011;59402;48.396;-4.472;2023-06-22T13:55:34;3.47;;;1.30;;
41709;SDS011;59402;48.396;-4.472;2023-06-22T13:58:00;4.17;;;1.33;;
41709;SDS011;59402;48.396;-4.472;2023-06-22T14:00:26;4.03;;;1.50;;
41709;SDS011;59402;48.396;-4.472;2023-06-22T14:02:53;3.35;;;1.35;;
41709;SDS011;59402;48.396;-4.472;2023-06-22T14:05:19;2.83;;;1.30;;
41709;SDS011;59402;48.396;-4.472;2023-06-22T14:07:45;3.08;;;1.30;;
41709;SDS011;59402;48.396;-4.472;2023-06-22T14:10:11;3.95;;;1.75;;
41709;SDS011;59402;48.396;-4.472;2023-06-22T14:12:36;4.00;;;1.60;;
41709;SDS011;59402;48.396;-4.472;2023-06-22T14:15:02;2.90;;;1.40;;
41709;SDS011;59402;48.396;-4.472;2023-06-22T14:17:28;3.00;;;1.58;;
41709;SDS011;59402;48.396;-4.472;2023-06-22T14:19:54;2.83;;;1.40;;
41709;SDS011;59402;48.396;-4.472;2023-06-22T14:22:21;3.50;;;1.65;;
41709;SDS011;59402;48.396;-4.472;2023-06-22T14:24:47;3.55;;;1.50;;
41709;SDS011;59402;48.396;-4.472;2023-06-22T14:27:13;2.60;;;1.33;;
41709;SDS011;59402;48.396;-4.472;2023-06-22T14:29:39;5.88;;;1.80;;
41709;SDS011;59402;48.396;-4.472;2023-06-22T14:32:05;4.03;;;1.63;;
41709;SDS011;59402;48.396;-4.472;2023-06-22T14:34:32;4.07;;;1.98;;
41709;SDS011;59402;48.396;-4.472;2023-06-22T14:37:01;3.47;;;1.63;;